sensor_id;sensor_type;location;lat;lon;timestamp;P1;durP1;ratioP1;P2;durP2;ratioP2
38779;SDS011;29273;49.962;9.768;2022-11-15T00:01:50;7.22;;;5.57;;
38779;SDS011;29273;49.962;9.768;2022-11-15T00:04:34;8.63;;;6.18;;
38779;SDS011;29273;49.962;9.768;2022-11-15T00:07:18;6.78;;;5.45;;
38779;SDS011;29273;49.962;9.768;2022-11-15T00:10:03;7.18;;;5.60;;
38779;SDS011;29273;49.962;9.768;2022-11-15T00:12:47;6.15;;;5.03;;
38779;SDS011;29273;49.962;9.768;2022-11-15T00:15:33;7.50;;;5.78;;
38779;SDS011;29273;49.962;9.768;2022-11-15T00:18:19;7.07;;;5.32;;
38779;SDS011;29273;49.962;9.768;2022-11-15T00:21:03;6.75;;;5.32;;
38779;SDS011;29273;49.962;9.768;2022-11-15T00:23:49;7.03;;;5.25;;
38779;SDS011;29273;49.962;9.768;2022-11-15T00:26:33;6.80;;;5.45;;
38779;SDS011;29273;49.962;9.768;2022-11-15T00:29:17;6.55;;;4.80;;
38779;SDS011;29273;49.962;9.768;2022-11-15T00:32:01;7.10;;;5.68;;
38779;SDS011;29273;49.962;9.768;2022-11-15T00:34:45;7.43;;;5.68;;
38779;SDS011;29273;49.962;9.768;2022-11-15T00:37:30;6.00;;;4.75;;
38779;SDS011;29273;49.962;9.768;2022-11-15T00:40:14;6.25;;;5.05;;
38779;SDS011;29273;49.962;9.768;2022-11-15T00:42:58;6.88;;;4.72;;
38779;SDS011;29273;49.962;9.768;2022-11-15T00:45:42;6.43;;;5.22;;
38779;SDS011;29273;49.962;9.768;2022-11-15T00:48:26;6.35;;;5.13;;
38779;SDS011;29273;49.962;9.768;2022-11-15T00:51:10;7.30;;;5.28;;
38779;SDS011;29273;49.962;9.768;2022-11-15T00:53:54;7.72;;;5.70;;
38779;SDS011;29273;49.962;9.768;2022-11-15T00:56:38;7.40;;;5.63;;
38779;SDS011;29273;49.962;9.768;2022-11-15T00:59:22;8.23;;;5.80;;
38779;SDS011;29273;49.962;9.768;2022-11-15T01:02:06;7.05;;;5.35;;
38779;SDS011;29273;49.962;9.768;2022-11-15T01:04:50;7.95;;;5.80;;
38779;SDS011;29273;49.962;9.768;2022-11-15T01:07:34;5.93;;;4.95;;
38779;SDS011;29273;49.962;9.768;2022-11-15T01:10:19;7.50;;;5.32;;
38779;SDS011;29273;49.962;9.768;2022-11-15T01:13:04;7.35;;;5.03;;
38779;SDS011;29273;49.962;9.768;2022-11-15T01:15:48;6.28;;;5.25;;
38779;SDS011;29273;49.962;9.768;2022-11-15T01:18:32;6.50;;;4.90;;
38779;SDS011;29273;49.962;9.768;2022-11-15T01:21:17;6.28;;;4.95;;
38779;SDS011;29273;49.962;9.768;2022-11-15T01:24:03;6.22;;;5.00;;
38779;SDS011;29273;49.962;9.768;2022-11-15T01:26:47;8.15;;;4.93;;
38779;SDS011;29273;49.962;9.768;2022-11-15T01:29:31;5.90;;;4.70;;
38779;SDS011;29273;49.962;9.768;2022-11-15T01:32:15;5.07;;;4.32;;
38779;SDS011;29273;49.962;9.768;2022-11-15T01:34:59;5.63;;;4.85;;
38779;SDS011;29273;49.962;9.768;2022-11-15T01:37:43;6.30;;;4.82;;
38779;SDS011;29273;49.962;9.768;2022-11-15T01:40:27;6.18;;;4.95;;
38779;SDS011;29273;49.962;9.768;2022-11-15T01:49:11;7.20;;;4.85;;
38779;SDS011;29273;49.962;9.768;2022-11-15T01:51:58;7.32;;;5.07;;
38779;SDS011;29273;49.962;9.768;2022-11-15T01:54:44;6.82;;;5.18;;
38779;SDS011;29273;49.962;9.768;2022-11-15T01:57:30;5.50;;;4.55;;
38779;SDS011;29273;49.962;9.768;2022-11-15T02:00:14;6.20;;;4.65;;
38779;SDS011;29273;49.962;9.768;2022-11-15T02:02:59;5.55;;;4.55;;
38779;SDS011;29273;49.962;9.768;2022-11-15T02:05:43;5.70;;;4.20;;
38779;SDS011;29273;49.962;9.768;2022-11-15T02:08:28;6.90;;;4.70;;
38779;SDS011;29273;49.962;9.768;2022-11-15T02:11:12;6.07;;;4.75;;
38779;SDS011;29273;49.962;9.768;2022-11-15T02:13:57;5.38;;;4.35;;
38779;SDS011;29273;49.962;9.768;2022-11-15T02:16:49;5.65;;;4.13;;
38779;SDS011;29273;49.962;9.768;2022-11-15T02:25:29;5.50;;;4.35;;
38779;SDS011;29273;49.962;9.768;2022-11-15T02:28:28;6.20;;;4.40;;
38779;SDS011;29273;49.962;9.768;2022-11-15T02:40:27;5.95;;;4.10;;
38779;SDS011;29273;49.962;9.768;2022-11-15T02:46:45;4.65;;;3.97;;
38779;SDS011;29273;49.962;9.768;2022-11-15T02:49:54;4.82;;;3.90;;
38779;SDS011;29273;49.962;9.768;2022-11-15T02:52:45;4.88;;;3.53;;
38779;SDS011;29273;49.962;9.768;2022-11-15T02:55:34;5.68;;;4.03;;
38779;SDS011;29273;49.962;9.768;2022-11-15T03:07:14;5.38;;;4.00;;
38779;SDS011;29273;49.962;9.768;2022-11-15T03:10:08;4.70;;;3.60;;
38779;SDS011;29273;49.962;9.768;2022-11-15T03:13:13;4.47;;;3.92;;
38779;SDS011;29273;49.962;9.768;2022-11-15T03:16:25;5.22;;;4.00;;
38779;SDS011;29273;49.962;9.768;2022-11-15T03:22:30;4.28;;;3.40;;
38779;SDS011;29273;49.962;9.768;2022-11-15T03:25:21;5.47;;;4.05;;
38779;SDS011;29273;49.962;9.768;2022-11-15T03:28:09;4.88;;;3.58;;
38779;SDS011;29273;49.962;9.768;2022-11-15T03:30:56;5.18;;;3.97;;
38779;SDS011;29273;49.962;9.768;2022-11-15T03:33:40;5.28;;;3.88;;
38779;SDS011;29273;49.962;9.768;2022-11-15T03:36:24;6.40;;;3.88;;
38779;SDS011;29273;49.962;9.768;2022-11-15T03:39:10;5.13;;;3.70;;
38779;SDS011;29273;49.962;9.768;2022-11-15T03:45:13;4.95;;;3.40;;
38779;SDS011;29273;49.962;9.768;2022-11-15T03:48:10;5.30;;;3.88;;
38779;SDS011;29273;49.962;9.768;2022-11-15T03:50:58;5.30;;;3.80;;
38779;SDS011;29273;49.962;9.768;2022-11-15T03:53:43;3.97;;;3.47;;
38779;SDS011;29273;49.962;9.768;2022-11-15T03:56:26;6.00;;;4.10;;
38779;SDS011;29273;49.962;9.768;2022-11-15T03:59:10;4.95;;;4.10;;
38779;SDS011;29273;49.962;9.768;2022-11-15T04:01:55;6.10;;;4.10;;
38779;SDS011;29273;49.962;9.768;2022-11-15T04:04:39;5.05;;;3.88;;
38779;SDS011;29273;49.962;9.768;2022-11-15T04:07:23;4.60;;;4.05;;
38779;SDS011;29273;49.962;9.768;2022-11-15T04:10:08;4.68;;;3.72;;
38779;SDS011;29273;49.962;9.768;2022-11-15T04:12:54;4.38;;;3.55;;
38779;SDS011;29273;49.962;9.768;2022-11-15T04:15:38;4.22;;;3.63;;
38779;SDS011;29273;49.962;9.768;2022-11-15T04:18:22;4.20;;;3.58;;
38779;SDS011;29273;49.962;9.768;2022-11-15T04:21:08;4.43;;;3.10;;
38779;SDS011;29273;49.962;9.768;2022-11-15T04:24:11;3.85;;;3.03;;
38779;SDS011;29273;49.962;9.768;2022-11-15T04:26:56;3.67;;;3.03;;
38779;SDS011;29273;49.962;9.768;2022-11-15T04:29:40;4.03;;;3.25;;
38779;SDS011;29273;49.962;9.768;2022-11-15T04:32:24;4.10;;;3.58;;
38779;SDS011;29273;49.962;9.768;2022-11-15T04:35:08;4.50;;;3.53;;
38779;SDS011;29273;49.962;9.768;2022-11-15T04:37:53;3.97;;;3.08;;
38779;SDS011;29273;49.962;9.768;2022-11-15T04:40:38;4.15;;;3.33;;
38779;SDS011;29273;49.962;9.768;2022-11-15T04:43:22;3.58;;;3.17;;
38779;SDS011;29273;49.962;9.768;2022-11-15T04:46:06;5.60;;;3.50;;
38779;SDS011;29273;49.962;9.768;2022-11-15T04:48:51;4.53;;;3.42;;
38779;SDS011;29273;49.962;9.768;2022-11-15T04:51:36;4.10;;;2.95;;
38779;SDS011;29273;49.962;9.768;2022-11-15T04:54:20;3.60;;;2.92;;
38779;SDS011;29273;49.962;9.768;2022-11-15T04:57:04;3.53;;;2.97;;
38779;SDS011;29273;49.962;9.768;2022-11-15T04:59:48;3.97;;;2.92;;
38779;SDS011;29273;49.962;9.768;2022-11-15T05:02:32;4.50;;;2.67;;
38779;SDS011;29273;49.962;9.768;2022-11-15T05:05:36;3.40;;;2.58;;
38779;SDS011;29273;49.962;9.768;2022-11-15T05:08:20;2.70;;;2.05;;
38779;SDS011;29273;49.962;9.768;2022-11-15T05:11:05;2.35;;;2.15;;
38779;SDS011;29273;49.962;9.768;2022-11-15T05:13:49;3.10;;;2.20;;
38779;SDS011;29273;49.962;9.768;2022-11-15T05:16:33;2.97;;;2.00;;
38779;SDS011;29273;49.962;9.768;2022-11-15T05:19:17;2.25;;;2.03;;
38779;SDS011;29273;49.962;9.768;2022-11-15T05:22:01;6.00;;;2.10;;
38779;SDS011;29273;49.962;9.768;2022-11-15T05:24:45;5.13;;;2.15;;
38779;SDS011;29273;49.962;9.768;2022-11-15T05:27:30;2.38;;;2.13;;
38779;SDS011;29273;49.962;9.768;2022-11-15T05:30:15;2.58;;;2.17;;
38779;SDS011;29273;49.962;9.768;2022-11-15T05:33:00;2.22;;;2.03;;
38779;SDS011;29273;49.962;9.768;2022-11-15T05:35:46;2.60;;;2.35;;
38779;SDS011;29273;49.962;9.768;2022-11-15T05:38:36;5.53;;;3.67;;
38779;SDS011;29273;49.962;9.768;2022-11-15T05:41:26;4.90;;;3.80;;
38779;SDS011;29273;49.962;9.768;2022-11-15T05:44:20;5.88;;;3.92;;
38779;SDS011;29273;49.962;9.768;2022-11-15T05:47:06;4.60;;;3.72;;
38779;SDS011;29273;49.962;9.768;2022-11-15T05:49:53;5.18;;;3.40;;
38779;SDS011;29273;49.962;9.768;2022-11-15T05:52:39;5.53;;;3.15;;
38779;SDS011;29273;49.962;9.768;2022-11-15T05:55:23;3.42;;;3.13;;
38779;SDS011;29273;49.962;9.768;2022-11-15T05:58:08;2.40;;;2.20;;
38779;SDS011;29273;49.962;9.768;2022-11-15T06:00:52;2.85;;;2.35;;
38779;SDS011;29273;49.962;9.768;2022-11-15T06:03:37;2.85;;;2.47;;
38779;SDS011;29273;49.962;9.768;2022-11-15T06:06:21;2.58;;;1.88;;
38779;SDS011;29273;49.962;9.768;2022-11-15T06:09:05;2.30;;;2.10;;
38779;SDS011;29273;49.962;9.768;2022-11-15T06:11:49;2.33;;;2.05;;
38779;SDS011;29273;49.962;9.768;2022-11-15T06:14:33;2.20;;;2.00;;
38779;SDS011;29273;49.962;9.768;2022-11-15T06:17:17;2.20;;;2.00;;
38779;SDS011;29273;49.962;9.768;2022-11-15T06:20:01;2.15;;;1.95;;
38779;SDS011;29273;49.962;9.768;2022-11-15T06:22:45;2.40;;;2.20;;
38779;SDS011;29273;49.962;9.768;2022-11-15T06:25:30;2.70;;;2.30;;
38779;SDS011;29273;49.962;9.768;2022-11-15T06:28:14;3.08;;;2.55;;
38779;SDS011;29273;49.962;9.768;2022-11-15T06:31:05;3.22;;;2.40;;
38779;SDS011;29273;49.962;9.768;2022-11-15T06:36:35;2.90;;;2.42;;
38779;SDS011;29273;49.962;9.768;2022-11-15T06:39:20;2.63;;;2.42;;
38779;SDS011;29273;49.962;9.768;2022-11-15T06:42:04;2.60;;;2.40;;
38779;SDS011;29273;49.962;9.768;2022-11-15T06:44:48;2.33;;;2.05;;
38779;SDS011;29273;49.962;9.768;2022-11-15T06:47:32;2.53;;;2.30;;
38779;SDS011;29273;49.962;9.768;2022-11-15T06:50:16;2.50;;;2.30;;
38779;SDS011;29273;49.962;9.768;2022-11-15T06:53:00;4.00;;;2.70;;
38779;SDS011;29273;49.962;9.768;2022-11-15T06:55:46;5.07;;;2.28;;
38779;SDS011;29273;49.962;9.768;2022-11-15T06:58:30;3.30;;;2.80;;
38779;SDS011;29273;49.962;9.768;2022-11-15T07:01:14;2.75;;;2.50;;
38779;SDS011;29273;49.962;9.768;2022-11-15T07:03:58;2.58;;;2.33;;
38779;SDS011;29273;49.962;9.768;2022-11-15T07:06:42;2.95;;;2.38;;
38779;SDS011;29273;49.962;9.768;2022-11-15T07:09:26;3.13;;;2.60;;
38779;SDS011;29273;49.962;9.768;2022-11-15T07:12:10;2.80;;;2.30;;
38779;SDS011;29273;49.962;9.768;2022-11-15T07:14:54;4.03;;;3.28;;
38779;SDS011;29273;49.962;9.768;2022-11-15T07:17:38;4.28;;;3.03;;
38779;SDS011;29273;49.962;9.768;2022-11-15T07:20:21;3.53;;;2.65;;
38779;SDS011;29273;49.962;9.768;2022-11-15T07:23:05;3.00;;;2.70;;
38779;SDS011;29273;49.962;9.768;2022-11-15T07:25:50;3.20;;;2.80;;
38779;SDS011;29273;49.962;9.768;2022-11-15T07:28:34;3.03;;;2.65;;
38779;SDS011;29273;49.962;9.768;2022-11-15T07:31:18;2.58;;;2.33;;
38779;SDS011;29273;49.962;9.768;2022-11-15T07:34:02;2.35;;;2.10;;
38779;SDS011;29273;49.962;9.768;2022-11-15T07:36:46;2.55;;;2.35;;
38779;SDS011;29273;49.962;9.768;2022-11-15T07:39:30;1.95;;;1.80;;
38779;SDS011;29273;49.962;9.768;2022-11-15T07:42:14;2.50;;;2.15;;
38779;SDS011;29273;49.962;9.768;2022-11-15T07:48:00;1.92;;;1.73;;
38779;SDS011;29273;49.962;9.768;2022-11-15T07:50:45;1.70;;;1.60;;
38779;SDS011;29273;49.962;9.768;2022-11-15T07:53:29;2.22;;;2.03;;
38779;SDS011;29273;49.962;9.768;2022-11-15T07:56:13;2.28;;;2.03;;
38779;SDS011;29273;49.962;9.768;2022-11-15T07:58:57;2.35;;;2.15;;
38779;SDS011;29273;49.962;9.768;2022-11-15T08:01:42;2.92;;;2.28;;
38779;SDS011;29273;49.962;9.768;2022-11-15T08:04:26;2.53;;;2.25;;
38779;SDS011;29273;49.962;9.768;2022-11-15T08:07:10;3.63;;;2.58;;
38779;SDS011;29273;49.962;9.768;2022-11-15T08:09:54;3.35;;;2.67;;
38779;SDS011;29273;49.962;9.768;2022-11-15T08:12:38;2.92;;;2.45;;
38779;SDS011;29273;49.962;9.768;2022-11-15T08:15:22;3.10;;;2.80;;
38779;SDS011;29273;49.962;9.768;2022-11-15T08:18:09;3.17;;;2.65;;
38779;SDS011;29273;49.962;9.768;2022-11-15T08:20:58;2.92;;;2.40;;
38779;SDS011;29273;49.962;9.768;2022-11-15T08:23:44;2.85;;;2.38;;
38779;SDS011;29273;49.962;9.768;2022-11-15T08:26:28;2.80;;;2.50;;
38779;SDS011;29273;49.962;9.768;2022-11-15T08:29:13;3.97;;;2.53;;
38779;SDS011;29273;49.962;9.768;2022-11-15T08:31:57;2.45;;;2.20;;
38779;SDS011;29273;49.962;9.768;2022-11-15T08:34:41;3.28;;;2.10;;
38779;SDS011;29273;49.962;9.768;2022-11-15T08:37:25;3.00;;;2.35;;
38779;SDS011;29273;49.962;9.768;2022-11-15T08:40:09;2.50;;;2.30;;
38779;SDS011;29273;49.962;9.768;2022-11-15T08:42:53;2.40;;;2.03;;
38779;SDS011;29273;49.962;9.768;2022-11-15T08:45:37;3.15;;;2.47;;
38779;SDS011;29273;49.962;9.768;2022-11-15T08:48:22;3.50;;;2.50;;
38779;SDS011;29273;49.962;9.768;2022-11-15T08:51:06;5.28;;;3.72;;
38779;SDS011;29273;49.962;9.768;2022-11-15T08:53:50;3.85;;;2.75;;
38779;SDS011;29273;49.962;9.768;2022-11-15T08:56:34;4.97;;;3.00;;
38779;SDS011;29273;49.962;9.768;2022-11-15T08:59:18;5.63;;;2.90;;
38779;SDS011;29273;49.962;9.768;2022-11-15T09:02:02;5.90;;;3.22;;
38779;SDS011;29273;49.962;9.768;2022-11-15T09:04:47;6.38;;;3.08;;
38779;SDS011;29273;49.962;9.768;2022-11-15T09:07:31;4.65;;;3.10;;
38779;SDS011;29273;49.962;9.768;2022-11-15T09:10:16;3.55;;;2.78;;
38779;SDS011;29273;49.962;9.768;2022-11-15T09:13:00;3.55;;;2.95;;
38779;SDS011;29273;49.962;9.768;2022-11-15T09:15:44;3.22;;;2.85;;
38779;SDS011;29273;49.962;9.768;2022-11-15T09:18:28;3.65;;;2.58;;
38779;SDS011;29273;49.962;9.768;2022-11-15T09:21:12;5.03;;;3.00;;
38779;SDS011;29273;49.962;9.768;2022-11-15T09:23:57;3.30;;;2.97;;
38779;SDS011;29273;49.962;9.768;2022-11-15T09:26:41;5.00;;;3.13;;
38779;SDS011;29273;49.962;9.768;2022-11-15T09:29:25;3.35;;;2.67;;
38779;SDS011;29273;49.962;9.768;2022-11-15T09:32:10;4.03;;;2.92;;
38779;SDS011;29273;49.962;9.768;2022-11-15T09:34:53;3.20;;;2.90;;
38779;SDS011;29273;49.962;9.768;2022-11-15T09:37:37;3.20;;;2.45;;
38779;SDS011;29273;49.962;9.768;2022-11-15T09:40:21;3.42;;;2.58;;
38779;SDS011;29273;49.962;9.768;2022-11-15T09:43:27;3.22;;;2.92;;
38779;SDS011;29273;49.962;9.768;2022-11-15T09:46:22;3.05;;;2.55;;
38779;SDS011;29273;49.962;9.768;2022-11-15T09:49:18;3.63;;;2.65;;
38779;SDS011;29273;49.962;9.768;2022-11-15T09:52:10;2.50;;;2.00;;
38779;SDS011;29273;49.962;9.768;2022-11-15T09:54:40;2.83;;;2.33;;
38779;SDS011;29273;49.962;9.768;2022-11-15T09:57:12;3.15;;;2.10;;
38779;SDS011;29273;49.962;9.768;2022-11-15T09:59:42;2.40;;;2.20;;
38779;SDS011;29273;49.962;9.768;2022-11-15T10:02:23;2.45;;;2.25;;
38779;SDS011;29273;49.962;9.768;2022-11-15T10:05:00;2.88;;;2.38;;
38779;SDS011;29273;49.962;9.768;2022-11-15T10:07:28;3.13;;;2.58;;
38779;SDS011;29273;49.962;9.768;2022-11-15T10:12:40;4.78;;;2.00;;
38779;SDS011;29273;49.962;9.768;2022-11-15T10:15:15;2.40;;;2.20;;
38779;SDS011;29273;49.962;9.768;2022-11-15T10:18:07;2.72;;;2.33;;
38779;SDS011;29273;49.962;9.768;2022-11-15T10:20:46;2.47;;;1.92;;
38779;SDS011;29273;49.962;9.768;2022-11-15T10:23:18;2.88;;;2.15;;
38779;SDS011;29273;49.962;9.768;2022-11-15T10:25:45;2.45;;;2.20;;
38779;SDS011;29273;49.962;9.768;2022-11-15T10:30:51;2.85;;;2.30;;
38779;SDS011;29273;49.962;9.768;2022-11-15T10:36:20;3.85;;;2.88;;
38779;SDS011;29273;49.962;9.768;2022-11-15T10:41:38;3.33;;;2.47;;
38779;SDS011;29273;49.962;9.768;2022-11-15T10:44:12;3.58;;;2.75;;
38779;SDS011;29273;49.962;9.768;2022-11-15T10:46:42;3.05;;;2.67;;
38779;SDS011;29273;49.962;9.768;2022-11-15T10:49:13;3.85;;;2.65;;
38779;SDS011;29273;49.962;9.768;2022-11-15T10:51:49;3.22;;;2.47;;
38779;SDS011;29273;49.962;9.768;2022-11-15T10:57:19;2.70;;;2.45;;
38779;SDS011;29273;49.962;9.768;2022-11-15T10:59:48;3.08;;;2.58;;
38779;SDS011;29273;49.962;9.768;2022-11-15T11:04:52;3.42;;;2.65;;
38779;SDS011;29273;49.962;9.768;2022-11-15T11:07:22;3.42;;;2.70;;
38779;SDS011;29273;49.962;9.768;2022-11-15T11:09:59;3.15;;;2.40;;
38779;SDS011;29273;49.962;9.768;2022-11-15T11:12:28;2.65;;;2.30;;
38779;SDS011;29273;49.962;9.768;2022-11-15T11:14:57;2.97;;;2.67;;
38779;SDS011;29273;49.962;9.768;2022-11-15T11:20:12;2.67;;;2.20;;
38779;SDS011;29273;49.962;9.768;2022-11-15T11:33:33;3.40;;;2.53;;
38779;SDS011;29273;49.962;9.768;2022-11-15T11:49:09;3.03;;;2.30;;
38779;SDS011;29273;49.962;9.768;2022-11-15T11:51:40;4.05;;;2.63;;
38779;SDS011;29273;49.962;9.768;2022-11-15T11:54:17;3.22;;;2.28;;
38779;SDS011;29273;49.962;9.768;2022-11-15T11:56:49;3.55;;;2.40;;
38779;SDS011;29273;49.962;9.768;2022-11-15T11:59:22;3.25;;;2.50;;
38779;SDS011;29273;49.962;9.768;2022-11-15T12:01:53;2.28;;;2.08;;
38779;SDS011;29273;49.962;9.768;2022-11-15T12:04:21;2.83;;;2.38;;
38779;SDS011;29273;49.962;9.768;2022-11-15T12:06:56;3.20;;;2.60;;
38779;SDS011;29273;49.962;9.768;2022-11-15T12:09:43;3.80;;;2.60;;
38779;SDS011;29273;49.962;9.768;2022-11-15T12:12:25;5.53;;;2.80;;
38779;SDS011;29273;49.962;9.768;2022-11-15T12:14:57;3.30;;;2.65;;
38779;SDS011;29273;49.962;9.768;2022-11-15T12:17:28;2.80;;;2.50;;
38779;SDS011;29273;49.962;9.768;2022-11-15T12:20:00;3.40;;;2.67;;
38779;SDS011;29273;49.962;9.768;2022-11-15T12:25:19;2.83;;;2.40;;
38779;SDS011;29273;49.962;9.768;2022-11-15T12:27:50;7.22;;;2.92;;
38779;SDS011;29273;49.962;9.768;2022-11-15T12:30:21;4.78;;;2.70;;
38779;SDS011;29273;49.962;9.768;2022-11-15T12:32:58;4.07;;;2.80;;
38779;SDS011;29273;49.962;9.768;2022-11-15T12:35:27;3.00;;;2.53;;
38779;SDS011;29273;49.962;9.768;2022-11-15T12:38:48;2.67;;;2.35;;
38779;SDS011;29273;49.962;9.768;2022-11-15T12:41:28;3.13;;;2.50;;
38779;SDS011;29273;49.962;9.768;2022-11-15T12:43:58;3.47;;;2.65;;
38779;SDS011;29273;49.962;9.768;2022-11-15T12:52:04;2.45;;;2.25;;
38779;SDS011;29273;49.962;9.768;2022-11-15T13:17:39;3.10;;;2.35;;
38779;SDS011;29273;49.962;9.768;2022-11-15T13:22:40;4.20;;;2.45;;
38779;SDS011;29273;49.962;9.768;2022-11-15T13:36:53;4.35;;;2.78;;
38779;SDS011;29273;49.962;9.768;2022-11-15T13:39:31;3.75;;;2.45;;
38779;SDS011;29273;49.962;9.768;2022-11-15T13:41:59;2.80;;;2.50;;
38779;SDS011;29273;49.962;9.768;2022-11-15T13:44:29;2.90;;;2.58;;
38779;SDS011;29273;49.962;9.768;2022-11-15T13:47:03;4.55;;;2.35;;
38779;SDS011;29273;49.962;9.768;2022-11-15T13:49:30;3.40;;;2.83;;
38779;SDS011;29273;49.962;9.768;2022-11-15T13:51:57;3.50;;;2.60;;
38779;SDS011;29273;49.962;9.768;2022-11-15T13:54:25;4.60;;;3.03;;
38779;SDS011;29273;49.962;9.768;2022-11-15T13:57:24;4.10;;;2.97;;
38779;SDS011;29273;49.962;9.768;2022-11-15T14:00:02;5.40;;;3.33;;
38779;SDS011;29273;49.962;9.768;2022-11-15T14:02:37;3.92;;;3.13;;
38779;SDS011;29273;49.962;9.768;2022-11-15T14:05:16;5.55;;;4.07;;
38779;SDS011;29273;49.962;9.768;2022-11-15T14:08:31;6.07;;;3.85;;
38779;SDS011;29273;49.962;9.768;2022-11-15T14:10:40;5.43;;;3.95;;
38779;SDS011;29273;49.962;9.768;2022-11-15T14:13:10;4.97;;;3.78;;
38779;SDS011;29273;49.962;9.768;2022-11-15T14:15:52;4.18;;;3.22;;
38779;SDS011;29273;49.962;9.768;2022-11-15T14:21:10;4.45;;;3.45;;
38779;SDS011;29273;49.962;9.768;2022-11-15T14:23:35;4.43;;;3.22;;
38779;SDS011;29273;49.962;9.768;2022-11-15T14:26:01;5.45;;;3.47;;
38779;SDS011;29273;49.962;9.768;2022-11-15T14:30:56;4.35;;;3.70;;
38779;SDS011;29273;49.962;9.768;2022-11-15T14:33:24;6.43;;;4.13;;
38779;SDS011;29273;49.962;9.768;2022-11-15T14:35:56;5.13;;;4.07;;
38779;SDS011;29273;49.962;9.768;2022-11-15T14:38:24;5.22;;;3.83;;
38779;SDS011;29273;49.962;9.768;2022-11-15T14:40:50;5.32;;;3.75;;
38779;SDS011;29273;49.962;9.768;2022-11-15T14:43:16;5.00;;;3.83;;
38779;SDS011;29273;49.962;9.768;2022-11-15T14:45:41;4.80;;;3.50;;
38779;SDS011;29273;49.962;9.768;2022-11-15T14:48:09;5.13;;;3.60;;
38779;SDS011;29273;49.962;9.768;2022-11-15T14:50:34;4.85;;;3.40;;
38779;SDS011;29273;49.962;9.768;2022-11-15T14:53:00;6.28;;;4.13;;
38779;SDS011;29273;49.962;9.768;2022-11-15T14:55:27;5.63;;;4.68;;
38779;SDS011;29273;49.962;9.768;2022-11-15T14:58:00;5.43;;;3.63;;
38779;SDS011;29273;49.962;9.768;2022-11-15T15:00:28;5.68;;;3.90;;
38779;SDS011;29273;49.962;9.768;2022-11-15T15:02:55;4.82;;;3.60;;
38779;SDS011;29273;49.962;9.768;2022-11-15T15:07:48;5.00;;;3.47;;
38779;SDS011;29273;49.962;9.768;2022-11-15T15:10:14;4.70;;;3.42;;
38779;SDS011;29273;49.962;9.768;2022-11-15T15:12:41;5.18;;;3.67;;
38779;SDS011;29273;49.962;9.768;2022-11-15T15:15:11;3.92;;;3.53;;
38779;SDS011;29273;49.962;9.768;2022-11-15T15:17:39;4.88;;;3.95;;
38779;SDS011;29273;49.962;9.768;2022-11-15T15:20:05;5.65;;;3.95;;
38779;SDS011;29273;49.962;9.768;2022-11-15T15:22:30;5.63;;;4.35;;
38779;SDS011;29273;49.962;9.768;2022-11-15T15:24:56;7.15;;;5.28;;
38779;SDS011;29273;49.962;9.768;2022-11-15T15:27:22;6.13;;;4.60;;
38779;SDS011;29273;49.962;9.768;2022-11-15T15:29:47;5.35;;;4.00;;
38779;SDS011;29273;49.962;9.768;2022-11-15T15:32:13;4.68;;;3.97;;
38779;SDS011;29273;49.962;9.768;2022-11-15T15:34:38;5.00;;;3.78;;
38779;SDS011;29273;49.962;9.768;2022-11-15T15:39:34;5.35;;;3.50;;
38779;SDS011;29273;49.962;9.768;2022-11-15T15:41:59;4.47;;;3.38;;
38779;SDS011;29273;49.962;9.768;2022-11-15T15:44:25;3.08;;;2.67;;
38779;SDS011;29273;49.962;9.768;2022-11-15T15:46:50;5.00;;;2.83;;
38779;SDS011;29273;49.962;9.768;2022-11-15T15:49:16;3.65;;;2.67;;
38779;SDS011;29273;49.962;9.768;2022-11-15T15:51:41;3.50;;;3.03;;
38779;SDS011;29273;49.962;9.768;2022-11-15T15:54:07;4.95;;;3.55;;
38779;SDS011;29273;49.962;9.768;2022-11-15T15:56:32;4.90;;;4.00;;
38779;SDS011;29273;49.962;9.768;2022-11-15T15:58:58;4.90;;;4.13;;
38779;SDS011;29273;49.962;9.768;2022-11-15T16:01:23;5.18;;;4.03;;
38779;SDS011;29273;49.962;9.768;2022-11-15T16:03:49;6.28;;;4.40;;
38779;SDS011;29273;49.962;9.768;2022-11-15T16:06:34;7.10;;;4.20;;
38779;SDS011;29273;49.962;9.768;2022-11-15T16:09:02;4.88;;;3.67;;
38779;SDS011;29273;49.962;9.768;2022-11-15T16:11:28;5.15;;;3.95;;
38779;SDS011;29273;49.962;9.768;2022-11-15T16:13:53;6.55;;;3.97;;
38779;SDS011;29273;49.962;9.768;2022-11-15T16:16:19;5.53;;;4.00;;
38779;SDS011;29273;49.962;9.768;2022-11-15T16:18:47;4.97;;;3.78;;
38779;SDS011;29273;49.962;9.768;2022-11-15T16:21:12;4.57;;;3.47;;
38779;SDS011;29273;49.962;9.768;2022-11-15T16:23:38;3.40;;;3.03;;
38779;SDS011;29273;49.962;9.768;2022-11-15T16:26:10;4.32;;;3.15;;
38779;SDS011;29273;49.962;9.768;2022-11-15T16:28:45;4.43;;;3.45;;
38779;SDS011;29273;49.962;9.768;2022-11-15T16:31:11;3.83;;;3.30;;
38779;SDS011;29273;49.962;9.768;2022-11-15T16:33:37;4.05;;;3.13;;
38779;SDS011;29273;49.962;9.768;2022-11-15T16:36:04;3.60;;;2.78;;
38779;SDS011;29273;49.962;9.768;2022-11-15T16:38:31;3.75;;;2.92;;
38779;SDS011;29273;49.962;9.768;2022-11-15T16:40:57;4.03;;;3.33;;
38779;SDS011;29273;49.962;9.768;2022-11-15T16:43:23;3.13;;;2.65;;
38779;SDS011;29273;49.962;9.768;2022-11-15T16:45:49;4.88;;;3.55;;
38779;SDS011;29273;49.962;9.768;2022-11-15T16:48:20;3.25;;;2.90;;
38779;SDS011;29273;49.962;9.768;2022-11-15T16:50:49;4.07;;;3.33;;
38779;SDS011;29273;49.962;9.768;2022-11-15T16:53:15;3.78;;;3.25;;
38779;SDS011;29273;49.962;9.768;2022-11-15T16:55:40;4.15;;;2.83;;
38779;SDS011;29273;49.962;9.768;2022-11-15T16:58:07;4.25;;;3.38;;
38779;SDS011;29273;49.962;9.768;2022-11-15T17:00:33;4.53;;;3.20;;
38779;SDS011;29273;49.962;9.768;2022-11-15T17:02:59;4.57;;;3.28;;
38779;SDS011;29273;49.962;9.768;2022-11-15T17:05:24;4.82;;;3.35;;
38779;SDS011;29273;49.962;9.768;2022-11-15T17:07:53;4.50;;;3.35;;
38779;SDS011;29273;49.962;9.768;2022-11-15T17:10:19;5.53;;;3.47;;
38779;SDS011;29273;49.962;9.768;2022-11-15T17:12:49;3.97;;;3.42;;
38779;SDS011;29273;49.962;9.768;2022-11-15T17:15:15;4.00;;;3.40;;
38779;SDS011;29273;49.962;9.768;2022-11-15T17:17:41;3.60;;;3.20;;
38779;SDS011;29273;49.962;9.768;2022-11-15T17:20:14;4.35;;;3.50;;
38779;SDS011;29273;49.962;9.768;2022-11-15T17:22:41;5.32;;;3.60;;
38779;SDS011;29273;49.962;9.768;2022-11-15T17:25:07;3.70;;;3.33;;
38779;SDS011;29273;49.962;9.768;2022-11-15T17:27:33;4.10;;;3.58;;
38779;SDS011;29273;49.962;9.768;2022-11-15T17:29:58;5.30;;;3.83;;
38779;SDS011;29273;49.962;9.768;2022-11-15T17:32:24;5.22;;;4.00;;
38779;SDS011;29273;49.962;9.768;2022-11-15T17:34:49;4.78;;;3.80;;
38779;SDS011;29273;49.962;9.768;2022-11-15T17:37:15;6.63;;;4.22;;
38779;SDS011;29273;49.962;9.768;2022-11-15T17:39:40;7.72;;;4.68;;
38779;SDS011;29273;49.962;9.768;2022-11-15T17:42:06;6.35;;;4.40;;
38779;SDS011;29273;49.962;9.768;2022-11-15T17:44:31;6.07;;;4.07;;
38779;SDS011;29273;49.962;9.768;2022-11-15T17:46:57;5.03;;;3.90;;
38779;SDS011;29273;49.962;9.768;2022-11-15T17:49:23;4.95;;;3.97;;
38779;SDS011;29273;49.962;9.768;2022-11-15T17:51:48;5.47;;;3.90;;
38779;SDS011;29273;49.962;9.768;2022-11-15T17:54:14;4.88;;;3.90;;
38779;SDS011;29273;49.962;9.768;2022-11-15T17:56:40;5.25;;;4.15;;
38779;SDS011;29273;49.962;9.768;2022-11-15T17:59:05;4.75;;;4.03;;
38779;SDS011;29273;49.962;9.768;2022-11-15T18:01:32;4.90;;;4.32;;
38779;SDS011;29273;49.962;9.768;2022-11-15T18:03:59;5.20;;;3.95;;
38779;SDS011;29273;49.962;9.768;2022-11-15T18:06:26;4.13;;;3.72;;
38779;SDS011;29273;49.962;9.768;2022-11-15T18:08:57;4.45;;;4.00;;
38779;SDS011;29273;49.962;9.768;2022-11-15T18:11:41;4.43;;;3.85;;
38779;SDS011;29273;49.962;9.768;2022-11-15T18:14:08;4.70;;;4.10;;
38779;SDS011;29273;49.962;9.768;2022-11-15T18:16:38;5.10;;;4.07;;
38779;SDS011;29273;49.962;9.768;2022-11-15T18:19:05;5.40;;;4.13;;
38779;SDS011;29273;49.962;9.768;2022-11-15T18:21:35;5.18;;;4.10;;